sensor_id;sensor_type;location;lat;lon;timestamp;temperature;humidity
7476;DHT22;3779;49.216;8.650;2023-10-08T07:37:58;22.10;51.70
7476;DHT22;3779;49.216;8.650;2023-10-08T07:42:27;22.10;52.60
7476;DHT22;3779;49.216;8.650;2023-10-08T08:16:19;22.40;52.80
7476;DHT22;3779;49.216;8.650;2023-10-08T08:19:10;22.40;52.20
7476;DHT22;3779;49.216;8.650;2023-10-08T08:22:42;22.40;52.50
7476;DHT22;3779;49.216;8.650;2023-10-08T08:25:42;22.40;53.60
7476;DHT22;3779;49.216;8.650;2023-10-08T08:29:00;22.50;53.30
7476;DHT22;3779;49.216;8.650;2023-10-08T08:31:47;22.50;53.60
7476;DHT22;3779;49.216;8.650;2023-10-08T08:34:49;22.50;53.30
7476;DHT22;3779;49.216;8.650;2023-10-08T08:37:39;22.50;53.10
7476;DHT22;3779;49.216;8.650;2023-10-08T08:40:29;22.50;53.30
7476;DHT22;3779;49.216;8.650;2023-10-08T08:43:16;22.60;53.40
7476;DHT22;3779;49.216;8.650;2023-10-08T08:46:05;22.60;53.50
7476;DHT22;3779;49.216;8.650;2023-10-08T08:48:53;22.60;53.60
7476;DHT22;3779;49.216;8.650;2023-10-08T08:51:41;22.60;53.50
7476;DHT22;3779;49.216;8.650;2023-10-08T08:54:28;22.60;53.50
7476;DHT22;3779;49.216;8.650;2023-10-08T09:00:47;22.60;54.00
7476;DHT22;3779;49.216;8.650;2023-10-08T09:03:39;22.70;53.80
7476;DHT22;3779;49.216;8.650;2023-10-08T09:06:28;22.70;54.10
7476;DHT22;3779;49.216;8.650;2023-10-08T09:09:14;22.70;54.20
7476;DHT22;3779;49.216;8.650;2023-10-08T09:12:09;22.70;54.30
7476;DHT22;3779;49.216;8.650;2023-10-08T09:15:01;22.70;54.60
7476;DHT22;3779;49.216;8.650;2023-10-08T09:17:49;22.70;54.80
7476;DHT22;3779;49.216;8.650;2023-10-08T09:20:37;22.80;54.70
7476;DHT22;3779;49.216;8.650;2023-10-08T09:23:30;22.80;54.40
7476;DHT22;3779;49.216;8.650;2023-10-08T09:26:23;22.80;54.30
7476;DHT22;3779;49.216;8.650;2023-10-08T09:29:11;22.80;54.80
7476;DHT22;3779;49.216;8.650;2023-10-08T09:32:03;22.80;54.60
7476;DHT22;3779;49.216;8.650;2023-10-08T09:34:52;22.80;54.40
7476;DHT22;3779;49.216;8.650;2023-10-08T09:37:40;22.80;54.40
7476;DHT22;3779;49.216;8.650;2023-10-08T09:40:26;22.80;54.40
7476;DHT22;3779;49.216;8.650;2023-10-08T09:43:13;22.80;54.20
7476;DHT22;3779;49.216;8.650;2023-10-08T09:46:22;22.80;54.30
7476;DHT22;3779;49.216;8.650;2023-10-08T09:49:13;22.80;54.90
7476;DHT22;3779;49.216;8.650;2023-10-08T09:52:03;22.90;54.40
7476;DHT22;3779;49.216;8.650;2023-10-08T09:55:12;22.90;54.80
7476;DHT22;3779;49.216;8.650;2023-10-08T09:57:58;22.90;55.00
7476;DHT22;3779;49.216;8.650;2023-10-08T10:00:44;23.00;55.00
7476;DHT22;3779;49.216;8.650;2023-10-08T10:03:34;23.00;54.90
7476;DHT22;3779;49.216;8.650;2023-10-08T10:06:22;23.00;55.30
7476;DHT22;3779;49.216;8.650;2023-10-08T10:09:08;23.00;54.90
7476;DHT22;3779;49.216;8.650;2023-10-08T10:12:01;23.00;55.10
7476;DHT22;3779;49.216;8.650;2023-10-08T10:17:37;23.10;54.90
7476;DHT22;3779;49.216;8.650;2023-10-08T10:20:23;23.10;55.00
7476;DHT22;3779;49.216;8.650;2023-10-08T10:23:42;23.10;54.60
7476;DHT22;3779;49.216;8.650;2023-10-08T10:26:34;23.10;55.10
7476;DHT22;3779;49.216;8.650;2023-10-08T10:29:22;23.10;54.60
7476;DHT22;3779;49.216;8.650;2023-10-08T10:32:14;23.10;54.70
7476;DHT22;3779;49.216;8.650;2023-10-08T10:35:04;23.10;54.60
7476;DHT22;3779;49.216;8.650;2023-10-08T10:37:57;23.10;54.60
7476;DHT22;3779;49.216;8.650;2023-10-08T10:40:49;23.10;54.60
7476;DHT22;3779;49.216;8.650;2023-10-08T12:41:29;23.30;55.90
7476;DHT22;3779;49.216;8.650;2023-10-08T12:44:20;23.30;55.80
7476;DHT22;3779;49.216;8.650;2023-10-08T12:47:07;23.40;55.60
7476;DHT22;3779;49.216;8.650;2023-10-08T12:49:53;23.40;55.70
7476;DHT22;3779;49.216;8.650;2023-10-08T12:52:47;23.40;55.80
7476;DHT22;3779;49.216;8.650;2023-10-08T13:11:31;23.20;57.50
7476;DHT22;3779;49.216;8.650;2023-10-08T16:18:22;23.60;61.00
7476;DHT22;3779;49.216;8.650;2023-10-08T16:24:11;23.60;61.10
7476;DHT22;3779;49.216;8.650;2023-10-08T16:27:29;23.50;61.00
7476;DHT22;3779;49.216;8.650;2023-10-08T16:36:15;23.50;60.90
7476;DHT22;3779;49.216;8.650;2023-10-08T16:41:57;23.40;60.50
7476;DHT22;3779;49.216;8.650;2023-10-08T16:56:29;23.70;59.70
7476;DHT22;3779;49.216;8.650;2023-10-08T16:59:45;23.70;59.50
7476;DHT22;3779;49.216;8.650;2023-10-08T17:02:34;23.70;59.10
7476;DHT22;3779;49.216;8.650;2023-10-08T17:05:20;23.80;59.30
7476;DHT22;3779;49.216;8.650;2023-10-08T17:10:59;23.80;59.20
